Time;durP1;ratioP1;P1;durP2;ratioP2;P2;SDS_P1;SDS_P2;PMS_P1;PMS_P2;Temp;Humidity;BMP_temperature;BMP_pressure;BME280_temperature;BME280_humidity;BME280_pressure;Samples;Min_cycle;Max_cycle;Signal;HPM_P1;HPM_P2
2022/01/27 00:01:36;;;;;;;0.08;0.08;;;;;;;2.55;54.79;99692.44;5101667;28;20105;-75
2022/01/27 00:06:35;;;;;;;0.00;0.00;;;;;;;2.59;54.27;99706.03;5113504;28;19916;-74
2022/01/27 00:09:12;;;;;;;0.00;0.00;;;;;;;2.54;54.57;99706.66;5111239;28;20118;-76
2022/01/27 00:11:38;;;;;;;0.00;0.00;;;;;;;2.59;54.73;99713.13;5097823;28;20115;-75
2022/01/27 00:14:04;;;;;;;0.00;0.00;;;;;;;2.57;54.57;99713.34;5108727;28;20024;-75
2022/01/27 00:16:34;;;;;;;0.15;0.15;;;;;;;2.50;55.31;99699.34;5093059;28;20036;-75
2022/01/27 00:18:59;;;;;;;0.00;0.00;;;;;;;2.55;54.43;99710.09;5101728;28;20092;-80
2022/01/27 00:21:29;;;;;;;0.00;0.00;;;;;;;2.50;54.71;99700.19;5102042;28;20036;-75
2022/01/27 00:23:54;;;;;;;0.10;0.10;;;;;;;2.58;54.28;99708.91;5098468;28;20031;-74
2022/01/27 00:26:20;;;;;;;0.00;0.00;;;;;;;2.52;54.86;99707.88;5106220;28;20027;-73
2022/01/27 00:28:47;;;;;;;0.00;0.00;;;;;;;2.47;54.97;99697.13;5098097;28;20027;-73
2022/01/27 00:31:15;;;;;;;0.00;0.00;;;;;;;2.55;55.17;99710.09;5110565;28;20035;-74
2022/01/27 00:33:40;;;;;;;0.00;0.00;;;;;;;2.49;54.87;99700.34;5113002;28;20032;-73
2022/01/27 00:36:06;;;;;;;0.20;0.20;;;;;;;2.54;55.19;99709.28;5112344;28;20042;-73
2022/01/27 00:38:32;;;;;;;5.03;1.00;;;;;;;2.33;55.14;99677.84;5107988;28;20032;-72
2022/01/27 00:40:58;;;;;;;0.00;0.00;;;;;;;2.56;55.23;99712.56;5097096;28;20051;-73
2022/01/27 00:43:24;;;;;;;0.00;0.00;;;;;;;2.54;54.81;99708.50;5092994;28;20036;-72
2022/01/27 00:45:50;;;;;;;0.00;0.00;;;;;;;2.52;54.89;99699.97;5092196;28;20035;-74
2022/01/27 00:48:17;;;;;;;0.00;0.00;;;;;;;2.53;55.00;99706.88;5091968;28;20039;-75
2022/01/27 00:50:51;;;;;;;0.22;0.22;;;;;;;2.45;55.38;99699.16;5095906;28;20099;-74
2022/01/27 00:53:44;;;;;;;0.00;0.00;;;;;;;2.46;55.63;99700.78;5111812;28;20410;-74
2022/01/27 00:56:18;;;;;;;0.08;0.08;;;;;;;2.38;55.63;99697.34;5112028;28;20032;-73
2022/01/27 01:01:15;;;;;;;0.00;0.00;;;;;;;2.44;55.81;99694.91;5096629;28;20032;-73
2022/01/27 01:03:44;;;;;;;0.45;0.45;;;;;;;2.36;56.10;99690.66;5091859;28;20479;-73
2022/01/27 01:16:26;;;;;;;0.00;0.00;;;;;;;2.51;56.28;99690.41;5110971;28;20031;-74
2022/01/27 01:19:02;;;;;;;0.00;0.00;;;;;;;2.43;56.29;99678.25;5093336;28;20069;-72
2022/01/27 01:21:55;;;;;;;0.00;0.00;;;;;;;2.44;56.21;99679.88;5101983;28;20473;-73
2022/01/27 01:32:40;;;;;;;0.10;0.10;;;;;;;2.53;56.68;99680.47;5096440;28;20059;-73
2022/01/27 01:35:07;;;;;;;0.08;0.08;;;;;;;2.55;56.84;99689.81;5101147;28;20501;-72
2022/01/27 01:37:38;;;;;;;0.00;0.00;;;;;;;2.56;56.95;99690.59;5106341;28;20077;-71
2022/01/27 01:40:13;;;;;;;0.00;0.00;;;;;;;2.47;56.44;99673.38;5095771;28;20103;-71
2022/01/27 01:42:39;;;;;;;0.13;0.13;;;;;;;2.54;56.47;99682.88;5091441;28;20442;-71
2022/01/27 01:45:13;;;;;;;0.20;0.20;;;;;;;2.50;56.69;99683.50;5102030;28;20077;-71
2022/01/27 01:47:38;;;;;;;0.00;0.00;;;;;;;2.45;56.94;99672.75;5094064;28;20080;-71
2022/01/27 01:50:06;;;;;;;0.00;0.00;;;;;;;2.51;56.69;99670.09;5112117;28;20027;-72
2022/01/27 01:52:32;;;;;;;0.20;0.20;;;;;;;2.44;57.06;99666.69;5092554;28;20016;-73
2022/01/27 01:54:58;;;;;;;0.00;0.00;;;;;;;2.49;57.09;99680.06;5095659;28;20027;-73
2022/01/27 01:57:24;;;;;;;0.00;0.00;;;;;;;2.51;57.07;99672.72;5109935;28;20562;-71
2022/01/27 01:59:50;;;;;;;0.00;0.00;;;;;;;2.39;56.91;99656.75;5099119;28;20110;-72
2022/01/27 02:02:16;;;;;;;0.00;0.00;;;;;;;2.48;57.26;99670.53;5111538;28;20486;-71
2022/01/27 02:04:42;;;;;;;0.00;0.00;;;;;;;2.50;57.43;99665.03;5094090;28;20027;-69
2022/01/27 02:07:48;;;;;;;0.25;0.25;;;;;;;2.42;57.23;99657.31;5110160;28;20406;-72
2022/01/27 02:18:08;;;;;;;0.00;0.00;;;;;;;2.43;57.24;99664.22;5097737;28;20093;-74
2022/01/27 02:20:40;;;;;;;0.00;0.00;;;;;;;2.40;56.92;99663.66;5103729;28;20031;-73
2022/01/27 02:23:07;;;;;;;0.13;0.13;;;;;;;2.43;56.68;99664.22;5108086;28;20551;-73
2022/01/27 02:25:33;;;;;;;0.00;0.00;;;;;;;2.36;57.00;99661.63;5101040;28;20470;-72
2022/01/27 02:27:59;;;;;;;0.05;0.05;;;;;;;2.33;57.34;99673.41;5097137;28;20052;-72
2022/01/27 02:30:25;;;;;;;0.20;0.20;;;;;;;2.33;57.42;99662.03;5095026;28;20035;-72
2022/01/27 02:32:52;;;;;;;0.00;0.00;;;;;;;2.37;57.13;99664.03;5093017;28;20491;-72
2022/01/27 02:35:25;;;;;;;0.00;0.00;;;;;;;2.38;57.55;99667.47;5110818;28;20041;-73
2022/01/27 02:37:52;;;;;;;0.20;0.20;;;;;;;2.29;57.46;99645.78;5105112;28;20024;-72
2022/01/27 02:40:28;;;;;;;0.00;0.00;;;;;;;2.40;57.37;99668.94;5089845;28;20035;-72
2022/01/27 02:42:54;;;;;;;0.00;0.00;;;;;;;2.37;57.63;99656.13;5095923;28;20110;-72
2022/01/27 02:45:36;;;;;;;0.00;0.00;;;;;;;2.30;57.81;99649.25;5091299;28;20112;-72
2022/01/27 02:48:02;;;;;;;0.00;0.00;;;;;;;2.30;57.62;99651.88;5092709;28;20112;-72
2022/01/27 02:50:28;;;;;;;0.00;0.00;;;;;;;2.39;57.41;99669.94;5091902;28;20057;-72
2022/01/27 02:52:53;;;;;;;0.00;0.00;;;;;;;2.28;57.91;99654.72;5097324;28;20127;-71
2022/01/27 02:55:19;;;;;;;0.00;0.00;;;;;;;2.34;57.70;99653.88;5109129;28;20482;-72
2022/01/27 02:57:44;;;;;;;0.00;0.00;;;;;;;2.40;58.03;99658.38;5102753;28;20035;-72
2022/01/27 03:00:10;;;;;;;0.00;0.00;;;;;;;2.40;58.08;99666.28;5091946;28;20097;-71
2022/01/27 03:02:36;;;;;;;0.00;0.00;;;;;;;2.34;58.00;99653.09;5093617;28;20032;-72
2022/01/27 03:05:03;;;;;;;1.92;1.10;;;;;;;2.38;58.44;99654.28;5095035;28;20024;-71
2022/01/27 03:07:29;;;;;;;0.22;0.22;;;;;;;2.49;57.92;99668.69;5097358;28;20054;-71
2022/01/27 03:09:54;;;;;;;0.03;0.03;;;;;;;2.45;58.38;99659.56;5091901;28;20028;-72
2022/01/27 03:12:23;;;;;;;0.75;0.75;;;;;;;2.46;58.66;99661.19;5091446;28;20028;-71
2022/01/27 03:14:49;;;;;;;0.00;0.00;;;;;;;2.49;58.75;99658.13;5090633;28;20097;-71
2022/01/27 03:17:14;;;;;;;0.00;0.00;;;;;;;2.52;58.64;99665.63;5095423;28;20290;-72
2022/01/27 03:19:40;;;;;;;0.00;0.00;;;;;;;2.49;58.25;99661.59;5107964;28;20099;-72
2022/01/27 03:22:07;;;;;;;0.10;0.10;;;;;;;2.52;58.40;99657.72;5105190;28;20027;-72
2022/01/27 03:24:33;;;;;;;0.00;0.00;;;;;;;2.52;57.96;99668.28;5102492;28;20032;-72
2022/01/27 03:26:59;;;;;;;0.00;0.00;;;;;;;2.47;58.41;99650.41;5100408;28;20020;-72
2022/01/27 03:29:26;;;;;;;0.00;0.00;;;;;;;2.53;57.82;99661.97;5110150;28;20111;-73
2022/01/27 03:31:51;;;;;;;0.00;0.00;;;;;;;2.48;58.36;99645.94;5105911;28;20069;-73
2022/01/27 03:34:17;;;;;;;0.00;0.00;;;;;;;2.45;58.44;99631.31;5110819;28;20031;-72
2022/01/27 03:36:43;;;;;;;0.00;0.00;;;;;;;2.60;58.38;99657.50;5106468;28;20027;-72
2022/01/27 03:39:09;;;;;;;1.15;1.10;;;;;;;2.60;58.65;99652.22;5094397;28;20031;-72
2022/01/27 03:41:37;;;;;;;1.23;1.02;;;;;;;2.60;58.19;99662.78;5095546;28;20537;-72
2022/01/27 03:44:04;;;;;;;0.00;0.00;;;;;;;2.48;58.24;99640.66;5093309;28;20445;-72
2022/01/27 03:46:30;;;;;;;0.00;0.00;;;;;;;2.54;58.49;99656.50;5094086;28;20054;-71
2022/01/27 03:48:55;;;;;;;0.90;0.75;;;;;;;2.53;58.50;99657.50;5095205;28;20463;-73
2022/01/27 03:51:21;;;;;;;0.00;0.00;;;;;;;2.58;57.95;99669.28;5099991;28;20027;-71
2022/01/27 03:53:47;;;;;;;0.00;0.00;;;;;;;2.51;58.31;99659.53;5090613;28;20044;-71
2022/01/27 03:56:12;;;;;;;0.17;0.17;;;;;;;2.59;58.04;99660.31;5100508;28;20043;-71
2022/01/27 03:58:38;;;;;;;0.00;0.00;;;;;;;2.55;58.33;99662.56;5109006;28;21560;-70
2022/01/27 04:01:04;;;;;;;0.15;0.15;;;;;;;2.50;57.99;99650.00;5107696;28;20103;-73
2022/01/27 04:03:33;;;;;;;0.00;0.00;;;;;;;2.59;58.41;99668.25;5100932;28;20035;-73
2022/01/27 04:06:05;;;;;;;4.32;1.75;;;;;;;2.59;58.26;99669.06;5106778;28;20399;-73
2022/01/27 04:08:32;;;;;;;0.22;0.22;;;;;;;2.54;58.33;99674.16;5099675;28;20529;-71
2022/01/27 04:10:57;;;;;;;0.32;0.32;;;;;;;2.51;58.22;99670.09;5102782;28;20039;-71
2022/01/27 04:13:22;;;;;;;0.03;0.03;;;;;;;2.46;58.70;99669.91;5111560;28;20426;-72
2022/01/27 04:15:48;;;;;;;0.00;0.00;;;;;;;2.49;58.88;99666.03;5112336;28;20405;-71
2022/01/27 04:18:14;;;;;;;0.00;0.00;;;;;;;2.42;59.02;99667.88;5097422;28;20040;-71
2022/01/27 04:20:41;;;;;;;0.00;0.00;;;;;;;2.43;59.26;99678.25;5106319;28;20028;-72
2022/01/27 04:23:08;;;;;;;0.10;0.10;;;;;;;2.46;59.08;99679.66;5099059;28;20020;-72
2022/01/27 04:25:37;;;;;;;0.00;0.00;;;;;;;2.42;59.56;99670.53;5095763;28;20084;-72
2022/01/27 04:28:06;;;;;;;0.00;0.00;;;;;;;2.36;59.57;99659.78;5093439;28;20034;-71
2022/01/27 04:30:32;;;;;;;0.00;0.00;;;;;;;2.45;59.70;99670.13;5100280;28;20093;-71
2022/01/27 04:33:00;;;;;;;0.00;0.00;;;;;;;2.47;59.67;99676.00;5100302;28;20498;-71
2022/01/27 04:35:29;;;;;;;0.00;0.00;;;;;;;2.48;59.81;99682.91;5099494;28;20085;-71
2022/01/27 04:40:28;;;;;;;0.20;0.20;;;;;;;2.50;59.72;99686.97;5097693;28;20034;-71
2022/01/27 04:43:05;;;;;;;0.00;0.00;;;;;;;2.42;59.64;99673.16;5098353;28;20468;-71
2022/01/27 04:45:40;;;;;;;0.00;0.00;;;;;;;2.53;59.73;99680.47;5105307;28;20023;-70
2022/01/27 04:48:11;;;;;;;0.65;0.65;;;;;;;2.49;59.56;99681.88;5095226;28;20380;-75
2022/01/27 04:50:38;;;;;;;0.00;0.00;;;;;;;2.53;59.68;99691.03;5095090;28;20045;-69
2022/01/27 04:53:07;;;;;;;0.47;0.47;;;;;;;2.59;59.53;99700.75;5106806;27;20044;-71
2022/01/27 04:55:32;;;;;;;0.00;0.00;;;;;;;2.62;59.58;99699.53;5101118;27;20078;-70
2022/01/27 04:58:09;;;;;;;0.00;0.00;;;;;;;2.59;59.48;99700.75;5100303;28;20039;-70
2022/01/27 05:00:34;;;;;;;0.00;0.00;;;;;;;2.62;59.71;99702.16;5093547;28;20076;-71
2022/01/27 05:03:02;;;;;;;0.10;0.10;;;;;;;2.32;59.46;99668.31;5093553;28;20031;-71
2022/01/27 05:05:27;;;;;;;0.10;0.10;;;;;;;2.61;59.55;99717.19;5101616;27;20682;-73
2022/01/27 05:07:59;;;;;;;0.00;0.00;;;;;;;2.58;59.43;99714.97;5103680;28;20028;-71
2022/01/27 05:10:29;;;;;;;0.00;0.00;;;;;;;2.50;59.78;99707.28;5106717;28;20051;-70
2022/01/27 05:13:08;;;;;;;0.43;0.43;;;;;;;2.57;60.00;99718.63;5104536;28;20103;-73
2022/01/27 05:15:43;;;;;;;0.00;0.00;;;;;;;2.59;59.82;99727.16;5098579;28;20032;-76
2022/01/27 05:18:08;;;;;;;0.00;0.00;;;;;;;2.64;59.36;99729.19;5097981;28;20061;-73
2022/01/27 05:20:34;;;;;;;0.00;0.00;;;;;;;2.58;59.98;99714.97;5098684;28;20032;-72
2022/01/27 05:22:59;;;;;;;0.00;0.00;;;;;;;2.66;59.91;99733.25;5098240;28;20039;-73
2022/01/27 05:25:25;;;;;;;0.00;0.00;;;;;;;2.67;59.95;99736.69;5114481;27;20414;-73
2022/01/27 05:27:50;;;;;;;0.00;0.00;;;;;;;2.69;60.01;99742.59;5125768;27;20146;-75
2022/01/27 05:30:15;;;;;;;0.00;0.00;;;;;;;2.67;59.77;99741.97;5098909;28;20150;-79
2022/01/27 05:32:41;;;;;;;0.00;0.00;;;;;;;2.73;60.07;99751.69;5091852;28;20040;-78
2022/01/27 05:35:07;;;;;;;2.22;1.70;;;;;;;2.74;60.27;99741.97;5090440;28;20030;-78
2022/01/27 05:37:32;;;;;;;0.00;0.00;;;;;;;2.72;60.04;99739.50;5107689;28;20030;-78
2022/01/27 05:39:58;;;;;;;0.00;0.00;;;;;;;2.71;60.10;99748.44;5110865;28;20024;-77
2022/01/27 05:42:23;;;;;;;0.00;0.00;;;;;;;2.74;60.26;99744.59;5110792;28;20027;-77
2022/01/27 05:44:49;;;;;;;0.00;0.00;;;;;;;2.69;60.41;99740.75;5110600;28;20023;-78
2022/01/27 05:47:14;;;;;;;0.00;0.00;;;;;;;2.81;60.57;99755.97;5110955;28;20119;-78
2022/01/27 05:49:40;;;;;;;0.00;0.00;;;;;;;2.78;60.38;99748.44;5110799;28;20027;-80
2022/01/27 05:52:06;;;;;;;0.80;0.80;;;;;;;2.79;60.43;99744.78;5110872;28;20053;-77
2022/01/27 05:54:34;;;;;;;0.00;0.00;;;;;;;2.80;60.42;99749.06;5110508;28;20047;-77
2022/01/27 05:56:59;;;;;;;0.00;0.00;;;;;;;2.84;60.58;99744.97;5110899;28;20517;-77
2022/01/27 05:59:25;;;;;;;0.00;0.00;;;;;;;2.80;60.66;99738.50;5110866;28;20035;-77
2022/01/27 06:01:50;;;;;;;0.10;0.10;;;;;;;2.85;60.43;99743.97;5110569;28;20035;-77
2022/01/27 06:04:16;;;;;;;0.00;0.00;;;;;;;2.88;60.67;99743.53;5110513;28;20492;-79
2022/01/27 06:06:41;;;;;;;0.00;0.00;;;;;;;2.85;60.44;99743.97;5110378;28;20395;-77
2022/01/27 06:09:07;;;;;;;0.15;0.15;;;;;;;2.89;60.40;99750.44;5109815;28;20403;-78
2022/01/27 06:11:32;;;;;;;0.00;0.00;;;;;;;2.91;60.48;99755.53;5109941;28;20031;-78
2022/01/27 06:13:58;;;;;;;0.00;0.00;;;;;;;2.94;60.72;99761.22;5109832;28;20471;-77
2022/01/27 06:16:23;;;;;;;0.00;0.00;;;;;;;2.96;60.58;99753.88;5109931;28;20055;-77
2022/01/27 06:18:49;;;;;;;0.00;0.00;;;;;;;3.01;60.20;99756.69;5109629;28;20024;-78
2022/01/27 06:21:16;;;;;;;0.90;0.90;;;;;;;3.04;60.47;99755.50;5109502;28;20027;-78
2022/01/27 06:23:42;;;;;;;0.32;0.32;;;;;;;3.06;60.44;99760.56;5109562;28;20020;-78
2022/01/27 06:26:07;;;;;;;0.00;0.00;;;;;;;3.08;60.24;99756.69;5109748;28;20043;-78
2022/01/27 06:28:33;;;;;;;0.00;0.00;;;;;;;3.14;60.12;99778.84;5109746;28;20027;-78
2022/01/27 06:30:58;;;;;;;0.00;0.00;;;;;;;3.18;60.05;99791.41;5109471;28;20036;-78
2022/01/27 06:33:24;;;;;;;0.00;0.00;;;;;;;3.20;60.26;99786.72;5109648;28;20490;-78
2022/01/27 06:35:49;;;;;;;0.65;0.65;;;;;;;3.20;59.51;99786.72;5109133;28;20023;-78
2022/01/27 06:38:17;;;;;;;0.00;0.00;;;;;;;3.22;59.58;99783.06;5109539;28;20051;-77
2022/01/27 06:40:42;;;;;;;0.00;0.00;;;;;;;3.25;59.58;99796.69;5109363;28;20051;-78
2022/01/27 06:43:08;;;;;;;0.00;0.00;;;;;;;3.28;59.47;99798.09;5109604;28;20482;-77
2022/01/27 06:45:33;;;;;;;0.00;0.00;;;;;;;3.30;59.37;99799.50;5109456;28;20032;-78
2022/01/27 06:47:58;;;;;;;0.00;0.00;;;;;;;3.34;59.19;99795.44;5109236;28;20028;-79
2022/01/27 06:50:24;;;;;;;0.00;0.00;;;;;;;3.35;59.19;99793.59;5109470;28;20031;-78
2022/01/27 06:52:49;;;;;;;0.00;0.00;;;;;;;3.42;59.12;99797.03;5108929;28;20043;-78
2022/01/27 06:55:18;;;;;;;0.00;0.00;;;;;;;3.44;58.61;99797.63;5109468;28;20508;-78
2022/01/27 06:57:45;;;;;;;0.00;0.00;;;;;;;3.49;58.63;99800.47;5109030;28;20502;-77
2022/01/27 07:00:11;;;;;;;0.00;0.00;;;;;;;3.42;58.48;99782.97;5109549;28;20032;-77
2022/01/27 07:02:37;;;;;;;0.00;0.00;;;;;;;3.51;58.71;99794.94;5109756;28;20019;-77
2022/01/27 07:05:03;;;;;;;0.00;0.00;;;;;;;3.53;58.60;99796.34;5109913;28;20020;-77
2022/01/27 07:07:29;;;;;;;0.00;0.00;;;;;;;3.57;58.79;99795.94;5109877;28;20020;-78
2022/01/27 07:09:54;;;;;;;0.00;0.00;;;;;;;3.63;58.59;99801.19;5109648;28;20023;-78
2022/01/27 07:12:20;;;;;;;0.00;0.00;;;;;;;3.67;58.16;99797.13;5109943;28;20024;-77
2022/01/27 07:14:46;;;;;;;0.13;0.13;;;;;;;3.71;58.61;99799.31;5109679;28;20019;-78
2022/01/27 07:17:13;;;;;;;0.00;0.00;;;;;;;3.77;58.33;99804.59;5109845;28;20038;-77
2022/01/27 07:19:39;;;;;;;0.00;0.00;;;;;;;3.82;57.85;99804.75;5109633;28;20550;-77
2022/01/27 07:22:04;;;;;;;0.00;0.00;;;;;;;3.87;58.05;99800.66;5109838;28;20104;-77
2022/01/27 07:24:29;;;;;;;0.17;0.17;;;;;;;3.88;57.75;99810.22;5109873;28;20047;-77
2022/01/27 07:26:55;;;;;;;0.00;0.00;;;;;;;3.95;57.84;99808.34;5109494;28;20059;-78
2022/01/27 07:29:21;;;;;;;0.00;0.00;;;;;;;3.97;57.36;99809.75;5109756;28;20055;-78
2022/01/27 07:31:46;;;;;;;0.00;0.00;;;;;;;4.00;57.15;99811.16;5109534;28;20038;-78
2022/01/27 07:34:11;;;;;;;0.17;0.17;;;;;;;4.04;56.99;99808.91;5113483;28;20494;-78
2022/01/27 07:36:37;;;;;;;0.00;0.00;;;;;;;4.07;56.82;99811.13;5113644;28;20409;-79
2022/01/27 07:39:03;;;;;;;0.00;0.00;;;;;;;4.13;56.86;99820.88;5113673;28;20096;-78
2022/01/27 07:41:28;;;;;;;0.00;0.00;;;;;;;4.14;56.48;99817.19;5113534;28;20019;-77
2022/01/27 07:43:54;;;;;;;0.10;0.10;;;;;;;4.17;56.70;99819.41;5113249;28;20101;-77
2022/01/27 07:46:19;;;;;;;0.05;0.05;;;;;;;4.19;56.48;99811.22;5113349;28;20023;-77
2022/01/27 07:48:45;;;;;;;0.00;0.00;;;;;;;4.23;56.16;99812.44;5113182;28;20127;-77
2022/01/27 07:51:11;;;;;;;0.00;0.00;;;;;;;4.22;56.01;99819.56;5113414;28;20019;-78
2022/01/27 07:53:38;;;;;;;0.45;0.45;;;;;;;4.24;55.55;99812.22;5114535;28;20102;-78
2022/01/27 07:56:04;;;;;;;0.00;0.00;;;;;;;4.24;55.86;99817.50;5113233;28;20052;-77
2022/01/27 07:58:31;;;;;;;0.20;0.20;;;;;;;4.29;56.15;99817.69;5113133;28;20028;-77
2022/01/27 08:00:57;;;;;;;0.10;0.10;;;;;;;4.36;55.73;99822.09;5112965;28;20046;-77
2022/01/27 08:03:22;;;;;;;0.00;0.00;;;;;;;4.37;56.13;99821.91;5112750;28;20051;-77
2022/01/27 08:05:48;;;;;;;0.00;0.00;;;;;;;4.45;55.88;99816.31;5112823;28;20063;-77
2022/01/27 08:08:14;;;;;;;0.00;0.00;;;;;;;4.52;55.70;99818.09;5113013;28;20468;-80
2022/01/27 08:10:39;;;;;;;0.00;0.00;;;;;;;4.56;54.95;99821.97;5112847;28;20508;-78
2022/01/27 08:13:06;;;;;;;0.00;0.00;;;;;;;4.57;54.83;99823.59;5112930;28;20049;-78
2022/01/27 08:15:32;;;;;;;0.00;0.00;;;;;;;4.58;55.23;99822.56;5112873;28;20034;-77
2022/01/27 08:17:58;;;;;;;0.00;0.00;;;;;;;4.64;54.46;99833.09;5112632;28;20028;-76
2022/01/27 08:20:23;;;;;;;1.35;1.25;;;;;;;4.65;54.89;99826.78;5112728;28;20060;-78
2022/01/27 08:22:50;;;;;;;0.57;0.57;;;;;;;4.68;54.60;99828.16;5112384;28;20126;-78
2022/01/27 08:25:16;;;;;;;0.00;0.00;;;;;;;4.84;54.20;99839.25;5112496;28;20039;-78
2022/01/27 08:27:45;;;;;;;0.00;0.00;;;;;;;4.83;53.90;99833.13;5112339;28;20019;-77
2022/01/27 08:30:12;;;;;;;0.20;0.20;;;;;;;4.85;54.12;99832.94;5112537;27;20034;-77
2022/01/27 08:33:20;;;;;;;0.00;0.00;;;;;;;4.97;53.85;99836.47;5112600;28;20486;-77
2022/01/27 08:35:26;;;;;;;0.00;0.00;;;;;;;5.02;53.47;99833.97;5107659;28;20116;-77
2022/01/27 08:37:52;;;;;;;0.00;0.00;;;;;;;5.03;53.37;99829.47;5112152;28;20117;-76
2022/01/27 08:40:19;;;;;;;0.00;0.00;;;;;;;5.13;53.10;99843.03;5112340;28;20067;-77
2022/01/27 08:42:45;;;;;;;0.13;0.13;;;;;;;5.13;52.56;99843.84;5094796;28;20051;-78
2022/01/27 08:45:14;;;;;;;0.10;0.10;;;;;;;5.16;52.75;99833.81;5111898;28;20110;-78
2022/01/27 08:47:39;;;;;;;;;;;;;;;5.20;52.28;99837.66;5112357;28;20028;-77
2022/01/27 08:50:07;;;;;;;0.00;0.00;;;;;;;5.18;52.12;99832.56;5111755;28;19984;-77
2022/01/27 08:52:33;;;;;;;0.43;0.43;;;;;;;5.22;52.11;99832.94;5112018;28;20078;-77
2022/01/27 08:54:59;;;;;;;0.00;0.00;;;;;;;5.26;52.43;99839.41;5111955;28;20034;-77
2022/01/27 08:57:24;;;;;;;0.00;0.00;;;;;;;5.34;51.96;99836.47;5113689;28;20108;-78
2022/01/27 08:59:51;;;;;;;0.00;0.00;;;;;;;5.37;51.91;99836.03;5111691;28;20027;-76
2022/01/27 09:02:17;;;;;;;0.63;0.63;;;;;;;5.41;51.73;99833.75;5111995;28;20475;-76
2022/01/27 09:04:42;;;;;;;0.00;0.00;;;;;;;5.40;51.76;99832.94;5111656;28;20114;-76
2022/01/27 09:07:08;;;;;;;0.00;0.00;;;;;;;5.45;51.56;99829.63;5111805;28;20411;-76
2022/01/27 09:09:33;;;;;;;0.30;0.30;;;;;;;5.53;52.14;99828.50;5111841;28;20407;-77
2022/01/27 09:12:00;;;;;;;0.00;0.00;;;;;;;5.69;51.76;99837.69;5113212;28;20031;-76
2022/01/27 09:14:31;;;;;;;0.00;0.00;;;;;;;5.68;51.08;99823.63;5111717;28;20076;-77
2022/01/27 09:16:58;;;;;;;0.00;0.00;;;;;;;5.85;50.99;99836.28;5111417;28;20050;-77
2022/01/27 09:19:25;;;;;;;0.00;0.00;;;;;;;6.01;50.58;99842.81;5111686;28;20023;-77
2022/01/27 09:21:53;;;;;;;0.00;0.00;;;;;;;6.12;49.17;99835.94;5111348;28;20034;-77
2022/01/27 09:24:26;;;;;;;0.00;0.00;;;;;;;6.18;49.26;99838.47;5111586;28;20133;-78
2022/01/27 09:26:53;;;;;;;0.00;0.00;;;;;;;6.30;49.47;99835.03;5111279;28;20034;-78
2022/01/27 09:29:20;;;;;;;0.00;0.00;;;;;;;6.34;50.46;99833.56;5111416;28;20039;-78
2022/01/27 09:31:50;;;;;;;0.00;0.00;;;;;;;6.39;49.49;99836.34;5111259;28;20026;-78
2022/01/27 09:34:16;;;;;;;0.00;0.00;;;;;;;6.37;49.31;99836.56;5111332;28;20029;-77
2022/01/27 09:36:42;;;;;;;0.00;0.00;;;;;;;6.33;48.85;99830.06;5111284;28;20172;-77
2022/01/27 09:39:09;;;;;;;0.00;0.00;;;;;;;6.28;49.44;99824.63;5110980;28;20597;-77
2022/01/27 09:41:37;;;;;;;0.00;0.00;;;;;;;6.38;49.52;99827.56;5110914;28;20456;-77
2022/01/27 09:44:03;;;;;;;;;;;;;;;6.39;49.22;99836.34;5112456;28;20024;-77
2022/01/27 09:46:31;;;;;;;0.00;0.00;;;;;;;6.42;49.58;99819.94;5110772;28;19914;-77
2022/01/27 09:48:58;;;;;;;0.00;0.00;;;;;;;6.40;49.51;99816.69;5110450;28;20403;-77
2022/01/27 09:51:28;;;;;;;0.20;0.20;;;;;;;6.34;49.25;99801.69;5111069;28;20096;-77
2022/01/27 09:53:56;;;;;;;0.00;0.00;;;;;;;6.44;49.83;99811.75;5110574;28;20055;-77
2022/01/27 09:56:24;;;;;;;0.00;0.00;;;;;;;6.44;49.51;99809.88;5093520;28;20059;-77
2022/01/27 09:58:49;;;;;;;0.00;0.00;;;;;;;6.47;48.96;99804.13;5111684;28;20055;-76
2022/01/27 10:01:15;;;;;;;0.00;0.00;;;;;;;6.48;49.16;99810.22;5110660;28;20062;-78
2022/01/27 10:04:00;;;;;;;0.28;0.28;;;;;;;6.54;49.10;99804.81;5106999;28;20028;-77
2022/01/27 10:06:29;;;;;;;0.00;0.00;;;;;;;6.46;48.81;99791.88;5090457;28;20028;-76
2022/01/27 10:09:14;;;;;;;0.00;0.00;;;;;;;6.47;49.26;99784.69;5090106;28;20080;-77
2022/01/27 10:11:41;;;;;;;0.00;0.00;;;;;;;6.57;48.83;99804.34;5090244;28;20073;-78
2022/01/27 10:14:24;;;;;;;0.00;0.00;;;;;;;6.57;48.76;99792.91;5089869;28;20038;-77
2022/01/27 10:16:53;;;;;;;0.00;0.00;;;;;;;6.49;48.46;99769.34;5090007;28;20046;-78
2022/01/27 10:19:19;;;;;;;0.00;0.00;;;;;;;6.57;47.89;99788.41;5090198;28;20036;-78
2022/01/27 10:21:44;;;;;;;0.00;0.00;;;;;;;6.51;47.79;99776.03;5090270;28;20028;-77
2022/01/27 10:24:19;;;;;;;0.00;0.00;;;;;;;6.64;48.68;99790.13;5089960;28;20056;-78
2022/01/27 10:26:52;;;;;;;0.00;0.00;;;;;;;6.62;48.03;99795.69;5090094;28;20035;-77
2022/01/27 10:29:30;;;;;;;0.00;0.00;;;;;;;6.61;47.68;99774.66;5089961;28;20050;-77
2022/01/27 10:32:07;;;;;;;0.00;0.00;;;;;;;6.66;48.04;99777.41;5089871;28;20122;-76
2022/01/27 10:34:59;;;;;;;0.00;0.00;;;;;;;6.74;48.17;99782.41;5089986;28;20544;-77
2022/01/27 10:37:24;;;;;;;0.43;0.43;;;;;;;6.76;48.01;99771.53;5089787;28;20093;-77
2022/01/27 10:39:50;;;;;;;0.00;0.00;;;;;;;6.75;47.27;99769.91;5089761;28;20032;-78
2022/01/27 10:42:20;;;;;;;0.00;0.00;;;;;;;6.80;47.95;99764.69;5089753;28;20038;-77
2022/01/27 10:44:53;;;;;;;0.00;0.00;;;;;;;6.73;47.23;99743.56;5089915;28;20052;-78
2022/01/27 10:47:23;;;;;;;0.00;0.00;;;;;;;6.85;47.65;99762.16;5089779;28;20093;-77
2022/01/27 10:50:04;;;;;;;0.00;0.00;;;;;;;6.76;47.41;99743.06;5089534;28;20043;-77
2022/01/27 10:52:48;;;;;;;0.00;0.00;;;;;;;6.95;47.26;99753.59;5089560;28;20032;-77
2022/01/27 10:55:17;;;;;;;0.00;0.00;;;;;;;6.96;46.83;99749.88;5089644;28;20028;-76
2022/01/27 10:57:49;;;;;;;0.00;0.00;;;;;;;6.95;45.87;99746.41;5089549;28;20479;-77
2022/01/27 11:00:19;;;;;;;0.00;0.00;;;;;;;6.98;46.40;99745.94;5089627;28;20059;-77
2022/01/27 11:02:56;;;;;;;0.15;0.15;;;;;;;7.01;46.83;99750.78;5089381;28;20032;-77
2022/01/27 11:05:27;;;;;;;0.00;0.00;;;;;;;6.89;46.82;99720.75;5106871;28;20028;-77
2022/01/27 11:07:53;;;;;;;0.00;0.00;;;;;;;7.06;46.29;99742.09;5108453;28;20028;-77
2022/01/27 11:10:19;;;;;;;0.00;0.00;;;;;;;7.01;45.59;99726.06;5093788;28;20031;-77
2022/01/27 11:12:46;;;;;;;0.00;0.00;;;;;;;7.06;46.32;99726.16;5093730;28;20061;-77
2022/01/27 11:15:14;;;;;;;0.00;0.00;;;;;;;7.05;45.43;99732.50;5093432;28;20082;-77
2022/01/27 11:17:41;;;;;;;0.00;0.00;;;;;;;7.02;44.84;99728.47;5093483;28;20077;-78
2022/01/27 11:22:58;;;;;;;0.00;0.00;;;;;;;7.01;45.20;99728.72;5094980;28;20115;-78
2022/01/27 11:27:59;;;;;;;0.00;0.00;;;;;;;7.00;45.66;99729.75;5094471;28;20399;-78
2022/01/27 11:30:35;;;;;;;0.00;0.00;;;;;;;7.02;45.71;99730.34;5093358;28;20035;-77
2022/01/27 11:33:08;;;;;;;0.00;0.00;;;;;;;6.93;45.66;99727.22;5093076;28;20020;-77
2022/01/27 11:35:34;;;;;;;0.00;0.00;;;;;;;6.96;45.64;99732.06;5093268;28;20445;-77
2022/01/27 11:38:03;;;;;;;0.00;0.00;;;;;;;6.92;46.11;99732.78;5093023;28;20407;-77
2022/01/27 11:40:41;;;;;;;0.00;0.00;;;;;;;6.72;45.64;99694.09;5093108;28;20398;-76
2022/01/27 11:43:11;;;;;;;0.20;0.20;;;;;;;6.95;45.89;99719.03;5092719;28;20411;-76
2022/01/27 11:45:47;;;;;;;0.00;0.00;;;;;;;6.95;45.55;99722.47;5092861;28;20399;-76
2022/01/27 11:48:15;;;;;;;0.10;0.10;;;;;;;7.01;45.10;99726.06;5092751;28;20032;-76
2022/01/27 11:50:56;;;;;;;0.00;0.00;;;;;;;6.93;44.47;99724.56;5092998;28;20024;-78
2022/01/27 11:53:50;;;;;;;0.00;0.00;;;;;;;6.95;44.91;99721.69;5105121;28;20411;-76
2022/01/27 11:56:27;;;;;;;0.00;0.00;;;;;;;6.95;44.99;99725.13;5113037;28;20084;-76
2022/01/27 11:58:55;;;;;;;0.00;0.00;;;;;;;6.92;45.42;99712.31;5112905;28;20039;-77
2022/01/27 12:01:26;;;;;;;0.00;0.00;;;;;;;6.93;45.40;99718.44;5113270;28;20035;-77
2022/01/27 12:04:07;;;;;;;0.15;0.15;;;;;;;6.94;45.11;99707.56;5112669;28;20020;-77
2022/01/27 12:06:58;;;;;;;0.00;0.00;;;;;;;6.92;45.69;99708.84;5112970;28;20088;-77
2022/01/27 12:09:29;;;;;;;0.00;0.00;;;;;;;6.87;45.73;99696.25;5112021;28;20032;-77
2022/01/27 12:12:02;;;;;;;0.00;0.00;;;;;;;6.86;45.72;99691.97;5112667;28;20051;-77
2022/01/27 12:14:34;;;;;;;0.00;0.00;;;;;;;6.87;44.77;99694.41;5112916;28;20031;-77
2022/01/27 12:17:09;;;;;;;0.25;0.25;;;;;;;6.97;45.03;99700.97;5114171;28;20490;-77
2022/01/27 12:19:49;;;;;;;0.00;0.00;;;;;;;6.78;45.13;99665.78;5112191;28;20398;-77
2022/01/27 12:22:16;;;;;;;0.00;0.00;;;;;;;7.00;45.41;99695.97;5112409;28;20030;-77
2022/01/27 12:25:02;;;;;;;0.00;0.00;;;;;;;6.96;44.67;99697.50;5112678;28;20028;-77
2022/01/27 12:27:30;;;;;;;0.20;0.20;;;;;;;6.90;45.38;99687.81;5112502;28;20027;-76